Time;durP1;ratioP1;P1;durP2;ratioP2;P2;SDS_P1;SDS_P2;PMS_P1;PMS_P2;Temp;Humidity;BMP_temperature;BMP_pressure;BME280_temperature;BME280_humidity;BME280_pressure;Samples;Min_cycle;Max_cycle;Signal;HPM_P1;HPM_P2
2022/03/04 00:00:16;;;;;;;2.10;1.73;;;;;;;;;;4986209;28;20215;-65
2022/03/04 00:02:43;;;;;;;3.13;2.53;;;;;;;;;;4986212;28;20217;-64
2022/03/04 00:05:10;;;;;;;5.07;3.03;;;;;;;;;;4986485;28;20308;-66
2022/03/04 00:07:37;;;;;;;2.10;1.53;;;;;;;;;;4973754;28;20260;-65
2022/03/04 00:10:06;;;;;;;10.87;3.60;;;;;;;;;;4986560;28;20210;-65
2022/03/04 00:12:33;;;;;;;6.33;3.80;;;;;;;;;;4985197;28;20221;-65
2022/03/04 00:15:00;;;;;;;10.10;3.93;;;;;;;;;;4981353;28;20233;-65
2022/03/04 00:17:27;;;;;;;3.30;2.47;;;;;;;;;;4986131;28;20212;-65
2022/03/04 00:19:54;;;;;;;5.47;3.70;;;;;;;;;;4986178;28;20221;-65
2022/03/04 00:22:21;;;;;;;6.50;3.47;;;;;;;;;;4985795;28;20212;-65
2022/03/04 00:24:48;;;;;;;10.43;3.97;;;;;;;;;;4986070;28;20212;-65
2022/03/04 00:27:16;;;;;;;6.53;2.47;;;;;;;;;;4986323;28;20244;-65
2022/03/04 00:29:43;;;;;;;6.83;3.03;;;;;;;;;;4985840;28;20216;-65
2022/03/04 00:32:10;;;;;;;4.60;3.50;;;;;;;;;;4985795;28;20236;-64
2022/03/04 00:34:38;;;;;;;5.67;3.00;;;;;;;;;;4985770;28;20755;-64
2022/03/04 00:37:05;;;;;;;4.83;3.30;;;;;;;;;;4985797;28;20213;-65
2022/03/04 00:39:32;;;;;;;8.17;3.63;;;;;;;;;;4984960;28;20217;-65
2022/03/04 00:41:59;;;;;;;3.53;2.43;;;;;;;;;;4985702;28;20222;-64
2022/03/04 00:44:28;;;;;;;7.80;3.93;;;;;;;;;;4985724;28;20219;-64
2022/03/04 00:46:55;;;;;;;2.83;2.63;;;;;;;;;;4985134;28;20722;-65
2022/03/04 00:49:22;;;;;;;4.97;2.80;;;;;;;;;;4985813;28;20223;-64
2022/03/04 00:51:49;;;;;;;5.77;3.13;;;;;;;;;;4985608;28;20220;-65
2022/03/04 00:54:16;;;;;;;4.43;2.37;;;;;;;;;;4984822;28;20213;-65
2022/03/04 00:56:43;;;;;;;8.87;3.83;;;;;;;;;;4985015;28;20753;-65
2022/03/04 00:59:10;;;;;;;4.03;3.03;;;;;;;;;;4984206;28;20274;-65
2022/03/04 01:01:39;;;;;;;4.60;2.83;;;;;;;;;;4984238;28;20271;-64
2022/03/04 01:04:06;;;;;;;5.73;1.97;;;;;;;;;;4981434;28;20209;-65
2022/03/04 01:06:33;;;;;;;5.83;3.50;;;;;;;;;;4984505;28;20454;-66
2022/03/04 01:09:00;;;;;;;9.03;3.07;;;;;;;;;;4984269;28;20212;-64
2022/03/04 01:11:27;;;;;;;3.67;2.80;;;;;;;;;;4985091;28;20221;-64
2022/03/04 01:13:54;;;;;;;4.53;3.10;;;;;;;;;;4984227;28;20219;-64
2022/03/04 01:16:21;;;;;;;4.40;2.27;;;;;;;;;;4984376;28;20240;-64
2022/03/04 01:18:49;;;;;;;8.33;3.60;;;;;;;;;;4984073;28;20205;-64
2022/03/04 01:21:16;;;;;;;2.53;1.90;;;;;;;;;;4984441;28;20212;-64
2022/03/04 01:23:43;;;;;;;10.00;4.27;;;;;;;;;;4984115;28;20216;-64
2022/03/04 01:26:10;;;;;;;2.73;2.53;;;;;;;;;;4984380;28;20214;-64
2022/03/04 01:28:40;;;;;;;9.07;2.70;;;;;;;;;;4984694;28;20232;-65
2022/03/04 01:31:09;;;;;;;4.00;3.00;;;;;;;;;;4972239;28;20747;-65
2022/03/04 01:33:36;;;;;;;4.10;3.13;;;;;;;;;;4984063;28;20737;-64
2022/03/04 01:36:05;;;;;;;3.60;2.43;;;;;;;;;;4980394;28;20213;-64
2022/03/04 01:38:32;;;;;;;9.53;3.63;;;;;;;;;;4983543;28;20215;-64
2022/03/04 01:40:59;;;;;;;4.60;3.00;;;;;;;;;;4984522;28;20222;-64
2022/03/04 01:43:26;;;;;;;3.00;2.67;;;;;;;;;;4984090;28;20701;-64
2022/03/04 01:45:53;;;;;;;4.03;3.13;;;;;;;;;;4972973;28;20286;-64
2022/03/04 01:48:21;;;;;;;6.70;3.50;;;;;;;;;;4980150;28;20592;-64
2022/03/04 01:50:49;;;;;;;4.00;3.53;;;;;;;;;;4984531;28;20216;-64
2022/03/04 01:53:17;;;;;;;8.20;3.87;;;;;;;;;;4983604;28;20294;-64
2022/03/04 01:55:44;;;;;;;3.33;2.93;;;;;;;;;;4979591;28;20214;-65
2022/03/04 01:58:12;;;;;;;5.20;2.60;;;;;;;;;;4981476;28;20216;-65
2022/03/04 02:00:39;;;;;;;12.57;3.90;;;;;;;;;;4979895;28;20656;-65
2022/03/04 02:03:10;;;;;;;5.53;2.50;;;;;;;;;;4984540;28;20235;-65
2022/03/04 02:05:37;;;;;;;6.80;3.80;;;;;;;;;;4984135;28;20202;-65
2022/03/04 02:08:05;;;;;;;5.03;3.33;;;;;;;;;;4984725;28;20249;-65
2022/03/04 02:10:33;;;;;;;14.83;4.77;;;;;;;;;;4982543;28;20209;-65
2022/03/04 02:13:00;;;;;;;11.17;3.97;;;;;;;;;;4984335;28;20218;-64
2022/03/04 02:15:27;;;;;;;11.07;3.67;;;;;;;;;;4980818;28;20227;-64
2022/03/04 02:17:54;;;;;;;7.07;3.07;;;;;;;;;;4981422;28;20206;-65
2022/03/04 02:20:22;;;;;;;4.00;3.20;;;;;;;;;;4983982;28;20241;-65
2022/03/04 02:22:50;;;;;;;3.67;3.00;;;;;;;;;;4984799;28;20320;-65
2022/03/04 02:25:17;;;;;;;6.43;3.53;;;;;;;;;;4988179;28;20215;-65
2022/03/04 02:27:44;;;;;;;9.03;3.80;;;;;;;;;;4975158;28;20779;-65
2022/03/04 02:30:12;;;;;;;3.77;3.43;;;;;;;;;;4986766;28;20211;-65
2022/03/04 02:32:39;;;;;;;7.10;4.57;;;;;;;;;;4987700;28;20229;-65
2022/03/04 02:35:06;;;;;;;7.23;3.33;;;;;;;;;;4983409;28;20261;-66
2022/03/04 02:37:34;;;;;;;6.47;3.67;;;;;;;;;;4974783;28;20567;-64
2022/03/04 02:40:03;;;;;;;5.63;3.13;;;;;;;;;;4987931;28;20225;-64
2022/03/04 02:42:30;;;;;;;7.57;3.27;;;;;;;;;;4987365;28;20206;-63
2022/03/04 02:44:57;;;;;;;4.80;3.40;;;;;;;;;;4987392;28;20214;-63
2022/03/04 02:47:24;;;;;;;6.43;3.97;;;;;;;;;;4987896;28;20229;-63
2022/03/04 02:49:51;;;;;;;5.07;3.30;;;;;;;;;;4986109;28;20233;-63
2022/03/04 02:52:18;;;;;;;7.73;3.00;;;;;;;;;;4987554;28;20202;-64
2022/03/04 02:54:45;;;;;;;6.57;3.60;;;;;;;;;;4984124;28;20215;-64
2022/03/04 02:57:13;;;;;;;6.60;3.37;;;;;;;;;;4982520;28;20241;-63
2022/03/04 02:59:40;;;;;;;6.57;3.90;;;;;;;;;;4986501;28;20668;-64
2022/03/04 03:02:08;;;;;;;12.03;5.00;;;;;;;;;;4987980;28;20225;-63
2022/03/04 03:04:35;;;;;;;6.30;4.13;;;;;;;;;;4987868;28;20229;-63
2022/03/04 03:07:02;;;;;;;5.23;3.63;;;;;;;;;;4987654;28;20540;-63
2022/03/04 03:09:29;;;;;;;5.57;3.73;;;;;;;;;;4984146;28;20233;-63
2022/03/04 03:11:56;;;;;;;7.17;3.43;;;;;;;;;;4986489;28;20202;-63
2022/03/04 03:14:24;;;;;;;8.83;3.83;;;;;;;;;;4986071;28;20264;-64
2022/03/04 03:16:51;;;;;;;5.53;3.90;;;;;;;;;;4986093;28;20237;-64
2022/03/04 03:19:18;;;;;;;5.53;3.10;;;;;;;;;;4986270;28;20672;-64
2022/03/04 03:21:46;;;;;;;5.27;3.17;;;;;;;;;;4986281;28;20217;-64
2022/03/04 03:24:13;;;;;;;4.17;3.00;;;;;;;;;;4985318;28;20209;-64
2022/03/04 03:26:40;;;;;;;9.37;3.10;;;;;;;;;;4985824;28;20205;-65
2022/03/04 03:29:07;;;;;;;4.47;3.53;;;;;;;;;;4986288;28;20310;-65
2022/03/04 03:31:36;;;;;;;4.43;3.30;;;;;;;;;;4985625;28;20809;-65
2022/03/04 03:34:03;;;;;;;5.43;3.37;;;;;;;;;;4985612;28;20268;-64
2022/03/04 03:36:30;;;;;;;4.67;2.67;;;;;;;;;;4986082;28;20209;-64
2022/03/04 03:38:57;;;;;;;8.80;3.47;;;;;;;;;;4985568;28;20217;-65
2022/03/04 03:41:24;;;;;;;4.60;3.23;;;;;;;;;;4986031;28;20213;-65
2022/03/04 03:43:52;;;;;;;4.80;3.20;;;;;;;;;;4985804;28;20569;-65
2022/03/04 03:46:20;;;;;;;3.60;2.67;;;;;;;;;;4985493;28;20706;-64
2022/03/04 03:48:48;;;;;;;4.37;2.87;;;;;;;;;;4985444;28;20256;-64
2022/03/04 03:51:15;;;;;;;5.87;3.03;;;;;;;;;;4982748;28;20217;-64
2022/03/04 03:53:42;;;;;;;3.93;3.03;;;;;;;;;;4983167;28;20217;-65
2022/03/04 03:56:09;;;;;;;6.13;3.17;;;;;;;;;;4981697;28;20670;-64
2022/03/04 03:58:36;;;;;;;6.07;3.17;;;;;;;;;;4980403;28;20220;-64
2022/03/04 04:01:03;;;;;;;5.33;3.03;;;;;;;;;;4981223;28;20202;-64
2022/03/04 04:03:31;;;;;;;5.60;2.43;;;;;;;;;;4981191;28;20213;-64
2022/03/04 04:05:59;;;;;;;4.67;3.00;;;;;;;;;;4985811;28;20640;-64
2022/03/04 04:08:26;;;;;;;3.63;2.33;;;;;;;;;;4925657;28;1606895;-64
2022/03/04 04:10:53;;;;;;;7.00;3.13;;;;;;;;;;4984161;28;20213;-63
2022/03/04 04:13:20;;;;;;;6.67;2.93;;;;;;;;;;4982556;28;20249;-64
2022/03/04 04:15:48;;;;;;;6.17;3.33;;;;;;;;;;4985589;28;20229;-64
2022/03/04 04:18:15;;;;;;;8.63;3.50;;;;;;;;;;4985807;28;20695;-64
2022/03/04 04:20:42;;;;;;;2.73;2.53;;;;;;;;;;4983594;28;20220;-64
2022/03/04 04:23:11;;;;;;;4.00;2.87;;;;;;;;;;4982349;28;20208;-64
2022/03/04 04:25:38;;;;;;;6.50;3.23;;;;;;;;;;4980212;28;20213;-64
2022/03/04 04:28:05;;;;;;;3.83;3.17;;;;;;;;;;4981064;28;20796;-64
2022/03/04 04:30:32;;;;;;;3.03;2.37;;;;;;;;;;4984034;28;20213;-64
2022/03/04 04:32:59;;;;;;;4.67;2.57;;;;;;;;;;4982810;28;20204;-64
2022/03/04 04:35:26;;;;;;;7.77;4.00;;;;;;;;;;4985738;28;20209;-64
2022/03/04 04:37:53;;;;;;;6.33;3.17;;;;;;;;;;4983083;28;20206;-64
2022/03/04 04:40:22;;;;;;;5.23;3.17;;;;;;;;;;4985437;28;20213;-65
2022/03/04 04:42:49;;;;;;;4.10;2.73;;;;;;;;;;4983152;28;20209;-65
2022/03/04 04:45:16;;;;;;;5.03;2.70;;;;;;;;;;4980895;28;20219;-65
2022/03/04 04:47:43;;;;;;;6.90;3.53;;;;;;;;;;4987881;28;20277;-64
2022/03/04 04:50:11;;;;;;;8.67;3.80;;;;;;;;;;4979694;28;20204;-65
2022/03/04 04:52:38;;;;;;;6.63;3.73;;;;;;;;;;4984054;28;20235;-65
2022/03/04 04:55:05;;;;;;;9.67;3.40;;;;;;;;;;4982514;28;20200;-65
2022/03/04 04:57:34;;;;;;;6.00;3.30;;;;;;;;;;4984189;28;20300;-64
2022/03/04 05:00:01;;;;;;;8.03;3.53;;;;;;;;;;4981953;28;20200;-65
2022/03/04 05:02:28;;;;;;;4.13;3.67;;;;;;;;;;4979315;28;20223;-65
2022/03/04 05:04:55;;;;;;;3.60;2.67;;;;;;;;;;4984341;28;20739;-64
2022/03/04 05:07:22;;;;;;;9.17;3.60;;;;;;;;;;4989100;28;20233;-65
2022/03/04 05:09:49;;;;;;;5.40;3.80;;;;;;;;;;4989007;28;20243;-64
2022/03/04 05:12:16;;;;;;;4.27;3.00;;;;;;;;;;4989507;28;20205;-64
2022/03/04 05:14:45;;;;;;;4.53;2.90;;;;;;;;;;4989307;28;20849;-64
2022/03/04 05:17:12;;;;;;;4.20;3.13;;;;;;;;;;4988327;28;20216;-64
2022/03/04 05:19:39;;;;;;;4.20;3.20;;;;;;;;;;4989404;28;20256;-64
2022/03/04 05:22:06;;;;;;;6.00;4.13;;;;;;;;;;4989363;28;20217;-64
2022/03/04 05:24:33;;;;;;;7.27;3.27;;;;;;;;;;4988644;28;20217;-65
2022/03/04 05:27:00;;;;;;;6.93;4.10;;;;;;;;;;4989096;28;20209;-64
2022/03/04 05:29:28;;;;;;;5.43;3.27;;;;;;;;;;4989062;28;20229;-64
2022/03/04 05:31:56;;;;;;;6.37;2.40;;;;;;;;;;4988842;28;20262;-64
2022/03/04 05:34:23;;;;;;;3.83;3.00;;;;;;;;;;4988770;28;20220;-64
2022/03/04 05:36:50;;;;;;;6.70;2.93;;;;;;;;;;4989012;28;20734;-64
2022/03/04 05:39:17;;;;;;;7.63;3.67;;;;;;;;;;4988053;28;20267;-64
2022/03/04 05:41:44;;;;;;;3.27;2.37;;;;;;;;;;4988806;28;20212;-64
2022/03/04 05:44:11;;;;;;;5.03;2.93;;;;;;;;;;4985286;28;20303;-64
2022/03/04 05:46:38;;;;;;;7.00;3.57;;;;;;;;;;4987287;28;20205;-64
2022/03/04 05:49:07;;;;;;;3.33;2.47;;;;;;;;;;4988484;28;20292;-64
2022/03/04 05:51:34;;;;;;;3.67;2.63;;;;;;;;;;4989073;28;20209;-64
2022/03/04 05:54:01;;;;;;;5.73;2.93;;;;;;;;;;4988250;28;20216;-64
2022/03/04 05:56:28;;;;;;;7.03;3.17;;;;;;;;;;4988738;28;20200;-64
2022/03/04 05:58:55;;;;;;;4.00;2.57;;;;;;;;;;4988136;28;20258;-64
2022/03/04 06:01:23;;;;;;;3.03;2.73;;;;;;;;;;4987343;28;20600;-65
2022/03/04 06:03:50;;;;;;;6.77;3.13;;;;;;;;;;4986414;28;20298;-66
2022/03/04 06:06:20;;;;;;;5.50;3.87;;;;;;;;;;4989059;28;20565;-63
2022/03/04 06:08:48;;;;;;;5.30;3.03;;;;;;;;;;4987656;28;20723;-63
2022/03/04 06:11:15;;;;;;;9.37;3.43;;;;;;;;;;4989025;28;20216;-63
2022/03/04 06:13:42;;;;;;;3.53;2.57;;;;;;;;;;4987695;28;20206;-64
2022/03/04 06:16:09;;;;;;;3.13;2.67;;;;;;;;;;4988692;28;20298;-63
2022/03/04 06:18:37;;;;;;;6.27;3.13;;;;;;;;;;4988700;28;20205;-64
2022/03/04 06:21:04;;;;;;;6.93;4.07;;;;;;;;;;4989223;28;20675;-64
2022/03/04 06:23:32;;;;;;;4.43;2.53;;;;;;;;;;4988086;28;20212;-64
2022/03/04 06:26:00;;;;;;;5.47;2.13;;;;;;;;;;4988839;28;20714;-64
2022/03/04 06:28:27;;;;;;;8.07;3.57;;;;;;;;;;4988235;28;20212;-63
2022/03/04 06:30:54;;;;;;;7.77;4.23;;;;;;;;;;4988308;28;20204;-64
2022/03/04 06:33:35;;;;;;;9.97;3.83;;;;;;;;;;4976805;28;20301;-64
2022/03/04 06:36:03;;;;;;;3.70;2.40;;;;;;;;;;4988403;28;20678;-64
2022/03/04 06:38:31;;;;;;;1.50;1.40;;;;;;;;;;4984554;28;20208;-63
2022/03/04 06:40:59;;;;;;;5.17;3.80;;;;;;;;;;4987630;28;20274;-64
2022/03/04 06:43:26;;;;;;;4.83;4.23;;;;;;;;;;4984929;28;20262;-64
2022/03/04 06:45:53;;;;;;;7.97;4.03;;;;;;;;;;4988866;28;20216;-63
2022/03/04 06:48:21;;;;;;;7.93;4.20;;;;;;;;;;4985977;28;20209;-61
2022/03/04 06:50:49;;;;;;;5.63;3.53;;;;;;;;;;4988677;28;20216;-63
2022/03/04 06:53:17;;;;;;;7.10;3.07;;;;;;;;;;4987701;28;20264;-64
2022/03/04 06:55:44;;;;;;;13.00;4.73;;;;;;;;;;4988450;28;20220;-63
2022/03/04 06:58:12;;;;;;;5.60;3.83;;;;;;;;;;4987251;28;20221;-63
2022/03/04 07:00:41;;;;;;;7.83;4.10;;;;;;;;;;4987985;28;20209;-63
2022/03/04 07:03:08;;;;;;;13.07;4.30;;;;;;;;;;4991642;28;20272;-63
2022/03/04 07:05:35;;;;;;;13.67;4.33;;;;;;;;;;4991636;28;20206;-63
2022/03/04 07:08:03;;;;;;;8.13;5.47;;;;;;;;;;4992107;28;20291;-64
2022/03/04 07:10:30;;;;;;;2.17;2.03;;;;;;;;;;4991318;28;20261;-65
2022/03/04 07:12:57;;;;;;;8.50;4.27;;;;;;;;;;4980511;28;20476;-63
2022/03/04 07:15:26;;;;;;;4.27;3.57;;;;;;;;;;4991308;28;20230;-63
2022/03/04 07:17:53;;;;;;;5.33;2.83;;;;;;;;;;4991652;28;20609;-63
2022/03/04 07:20:20;;;;;;;3.77;3.20;;;;;;;;;;4991872;28;20259;-63
2022/03/04 07:22:47;;;;;;;7.13;4.27;;;;;;;;;;4991516;28;20272;-64
2022/03/04 07:25:15;;;;;;;10.03;5.73;;;;;;;;;;4990981;28;20225;-63
2022/03/04 07:27:42;;;;;;;10.60;4.30;;;;;;;;;;4991305;28;20209;-63
2022/03/04 07:30:11;;;;;;;1.23;1.23;;;;;;;;;;4990438;28;20226;-63
2022/03/04 07:32:39;;;;;;;4.10;3.13;;;;;;;;;;4991199;28;20699;-63
2022/03/04 07:35:07;;;;;;;9.30;4.67;;;;;;;;;;4991211;28;20637;-66
2022/03/04 07:37:35;;;;;;;4.63;3.37;;;;;;;;;;4990539;28;20308;-63
2022/03/04 07:40:02;;;;;;;6.67;4.03;;;;;;;;;;4975967;28;20210;-63
2022/03/04 07:42:29;;;;;;;3.83;3.40;;;;;;;;;;4990816;28;20198;-63
2022/03/04 07:44:56;;;;;;;5.90;3.37;;;;;;;;;;4989446;28;20233;-63
2022/03/04 07:47:23;;;;;;;2.17;2.07;;;;;;;;;;4990644;28;20219;-63
2022/03/04 07:49:52;;;;;;;2.53;1.93;;;;;;;;;;4988497;28;20220;-63
2022/03/04 07:52:19;;;;;;;7.00;4.33;;;;;;;;;;4987211;28;20305;-63
2022/03/04 07:54:46;;;;;;;6.20;2.87;;;;;;;;;;4990764;28;20203;-63
2022/03/04 07:57:13;;;;;;;4.40;1.77;;;;;;;;;;4990585;28;20218;-63
2022/03/04 07:59:40;;;;;;;6.60;4.33;;;;;;;;;;4990485;28;20205;-63
2022/03/04 08:02:08;;;;;;;8.97;4.07;;;;;;;;;;4989250;28;20217;-63
2022/03/04 08:04:35;;;;;;;9.17;4.83;;;;;;;;;;4990824;28;20269;-63
2022/03/04 08:07:03;;;;;;;3.03;2.67;;;;;;;;;;4990225;28;20239;-63
2022/03/04 08:09:30;;;;;;;3.17;2.90;;;;;;;;;;4990544;28;20236;-64
2022/03/04 08:11:57;;;;;;;3.80;3.47;;;;;;;;;;4987605;28;20216;-65
2022/03/04 08:14:24;;;;;;;4.50;2.87;;;;;;;;;;4979285;28;20669;-65
2022/03/04 08:16:51;;;;;;;10.67;4.60;;;;;;;;;;4989994;28;20208;-64
2022/03/04 08:19:18;;;;;;;1.50;1.40;;;;;;;;;;4990402;28;20585;-65
2022/03/04 08:21:47;;;;;;;9.57;5.53;;;;;;;;;;4989301;28;20213;-66
2022/03/04 08:24:15;;;;;;;2.77;1.60;;;;;;;;;;4990543;28;20242;-66
2022/03/04 08:26:44;;;;;;;5.40;3.17;;;;;;;;;;4989342;28;20729;-64
2022/03/04 08:29:12;;;;;;;4.13;2.77;;;;;;;;;;4988664;28;20205;-72
2022/03/04 08:31:39;;;;;;;7.63;3.43;;;;;;;;;;4989598;28;20216;-65
2022/03/04 08:34:06;;;;;;;11.47;5.37;;;;;;;;;;4990239;28;20312;-65
2022/03/04 08:36:35;;;;;;;15.93;5.97;;;;;;;;;;4990334;28;20312;-66
2022/03/04 08:39:03;;;;;;;6.43;3.47;;;;;;;;;;4990037;28;20275;-65
2022/03/04 08:41:32;;;;;;;7.63;4.23;;;;;;;;;;4990591;28;20231;-66
2022/03/04 08:43:59;;;;;;;4.07;2.87;;;;;;;;;;4990033;28;20213;-65
2022/03/04 08:46:26;;;;;;;14.60;7.07;;;;;;;;;;4989459;28;20683;-65
2022/03/04 08:48:53;;;;;;;8.30;5.17;;;;;;;;;;4989208;28;20214;-64
2022/03/04 08:51:24;;;;;;;2.87;2.60;;;;;;;;;;4989679;28;20260;-64
2022/03/04 08:53:51;;;;;;;11.50;5.20;;;;;;;;;;4989728;28;20702;-64
2022/03/04 08:56:19;;;;;;;7.90;4.90;;;;;;;;;;4989690;28;20213;-65
2022/03/04 08:58:47;;;;;;;10.83;5.20;;;;;;;;;;4989728;28;20229;-64
2022/03/04 09:01:14;;;;;;;19.33;8.20;;;;;;;;;;4989329;28;20217;-64
2022/03/04 09:03:41;;;;;;;15.47;6.80;;;;;;;;;;4988732;28;20216;-65
2022/03/04 09:06:08;;;;;;;8.30;4.70;;;;;;;;;;4988624;28;20267;-64
2022/03/04 09:08:35;;;;;;;2.63;1.33;;;;;;;;;;4989212;28;20351;-64
2022/03/04 09:11:02;;;;;;;13.20;5.80;;;;;;;;;;4988815;28;20230;-64
2022/03/04 09:13:32;;;;;;;10.53;5.97;;;;;;;;;;4988624;28;20220;-64
2022/03/04 09:16:00;;;;;;;7.57;4.30;;;;;;;;;;4988994;28;20280;-64
2022/03/04 09:18:27;;;;;;;11.43;6.40;;;;;;;;;;4988741;28;20217;-64
2022/03/04 09:20:54;;;;;;;3.80;3.43;;;;;;;;;;4989054;28;20201;-64
2022/03/04 09:23:22;;;;;;;14.73;5.27;;;;;;;;;;4988192;28;20252;-64
2022/03/04 09:25:49;;;;;;;13.27;6.77;;;;;;;;;;4988957;28;20205;-63
2022/03/04 09:28:16;;;;;;;13.77;7.00;;;;;;;;;;4989051;28;20238;-64
2022/03/04 09:30:43;;;;;;;11.60;6.70;;;;;;;;;;4986801;28;20313;-64
2022/03/04 09:33:12;;;;;;;10.23;6.37;;;;;;;;;;4988218;28;20208;-65
2022/03/04 09:35:39;;;;;;;8.47;3.17;;;;;;;;;;4987508;28;20306;-64
2022/03/04 09:38:06;;;;;;;3.27;1.77;;;;;;;;;;4988426;28;20474;-64
2022/03/04 09:40:33;;;;;;;7.80;3.73;;;;;;;;;;4988123;28;20211;-65
2022/03/04 09:43:01;;;;;;;16.90;8.37;;;;;;;;;;4988162;28;20208;-65
2022/03/04 09:45:30;;;;;;;11.27;4.23;;;;;;;;;;4986702;28;20616;-65
2022/03/04 09:47:57;;;;;;;19.80;7.23;;;;;;;;;;4987905;28;20329;-65
2022/03/04 09:50:28;;;;;;;12.47;6.70;;;;;;;;;;4987855;28;20231;-65
2022/03/04 09:52:56;;;;;;;16.30;7.93;;;;;;;;;;4987971;28;20223;-64
2022/03/04 09:55:23;;;;;;;9.80;5.07;;;;;;;;;;4987680;28;20212;-65
2022/03/04 09:57:50;;;;;;;14.20;8.80;;;;;;;;;;4988387;28;20269;-65
2022/03/04 10:00:17;;;;;;;20.20;8.53;;;;;;;;;;4987558;28;20664;-65
2022/03/04 10:02:44;;;;;;;10.03;5.27;;;;;;;;;;4987837;28;20703;-65
2022/03/04 10:05:12;;;;;;;10.30;6.37;;;;;;;;;;4987379;28;20718;-65
2022/03/04 10:07:42;;;;;;;14.03;6.73;;;;;;;;;;4986913;28;20236;-64
2022/03/04 10:10:13;;;;;;;8.37;3.77;;;;;;;;;;4987351;28;20605;-64
2022/03/04 10:12:50;;;;;;;17.60;8.23;;;;;;;;;;4987966;28;20268;-65
2022/03/04 10:15:17;;;;;;;18.10;8.20;;;;;;;;;;4987962;28;20229;-65
2022/03/04 10:17:56;;;;;;;18.93;8.73;;;;;;;;;;4987391;28;20209;-65
2022/03/04 10:20:32;;;;;;;22.30;9.50;;;;;;;;;;4987797;28;20659;-66
2022/03/04 10:23:11;;;;;;;14.33;6.80;;;;;;;;;;4987807;28;20217;-65
2022/03/04 10:25:38;;;;;;;17.30;8.53;;;;;;;;;;4987684;28;20228;-65
2022/03/04 10:28:09;;;;;;;19.67;9.83;;;;;;;;;;4987383;28;20217;-65
2022/03/04 10:30:37;;;;;;;11.23;6.90;;;;;;;;;;4987021;28;20899;-65
2022/03/04 10:33:07;;;;;;;18.27;8.47;;;;;;;;;;4987624;28;20272;-65
2022/03/04 10:35:35;;;;;;;16.60;8.17;;;;;;;;;;4984685;28;21107;-65
2022/03/04 10:38:04;;;;;;;14.77;8.03;;;;;;;;;;4975862;28;20213;-65
2022/03/04 10:40:34;;;;;;;15.97;9.50;;;;;;;;;;4986645;28;20731;-65
2022/03/04 10:43:02;;;;;;;14.97;8.73;;;;;;;;;;4986927;28;20233;-65
2022/03/04 10:45:30;;;;;;;19.00;8.43;;;;;;;;;;4985744;28;20248;-66
2022/03/04 10:47:59;;;;;;;19.57;8.03;;;;;;;;;;4986564;28;20213;-65
2022/03/04 10:50:32;;;;;;;17.80;7.33;;;;;;;;;;4986040;28;20240;-65
2022/03/04 10:53:00;;;;;;;18.30;9.70;;;;;;;;;;4986319;28;20218;-65
2022/03/04 10:55:33;;;;;;;12.97;7.60;;;;;;;;;;4986780;28;20209;-65
2022/03/04 10:58:01;;;;;;;16.87;7.40;;;;;;;;;;4986751;28;20639;-65
2022/03/04 11:00:28;;;;;;;9.40;4.03;;;;;;;;;;4986492;28;20206;-65
2022/03/04 11:02:55;;;;;;;20.87;9.17;;;;;;;;;;4986106;28;20749;-65
2022/03/04 11:05:23;;;;;;;10.43;5.57;;;;;;;;;;4986850;28;20594;-65
2022/03/04 11:07:50;;;;;;;13.67;6.67;;;;;;;;;;4986856;28;20269;-65
2022/03/04 11:10:18;;;;;;;14.57;5.83;;;;;;;;;;4986077;28;20352;-65
2022/03/04 11:12:50;;;;;;;13.40;6.17;;;;;;;;;;4985904;28;20288;-65
2022/03/04 11:15:17;;;;;;;8.47;3.20;;;;;;;;;;4986289;28;20233;-65
2022/03/04 11:17:45;;;;;;;19.37;8.67;;;;;;;;;;4986360;28;20275;-65
2022/03/04 11:20:12;;;;;;;22.20;8.93;;;;;;;;;;4986518;28;20300;-66
2022/03/04 11:22:40;;;;;;;15.03;7.80;;;;;;;;;;4985267;28;20253;-65
2022/03/04 11:25:10;;;;;;;18.03;7.93;;;;;;;;;;4986225;28;20264;-66
2022/03/04 11:27:42;;;;;;;15.87;8.27;;;;;;;;;;4985183;28;20209;-66
2022/03/04 11:30:28;;;;;;;9.50;5.90;;;;;;;;;;4986214;28;22129;-65
2022/03/04 11:33:00;;;;;;;8.37;4.33;;;;;;;;;;4983465;28;20248;-65
2022/03/04 11:35:36;;;;;;;13.80;7.83;;;;;;;;;;4985881;28;20473;-65
2022/03/04 11:38:03;;;;;;;12.93;7.40;;;;;;;;;;4986096;28;20676;-66
2022/03/04 11:40:38;;;;;;;18.83;8.83;;;;;;;;;;4985611;28;20224;-66
2022/03/04 11:43:06;;;;;;;5.33;3.83;;;;;;;;;;4983970;28;20201;-65
2022/03/04 11:45:35;;;;;;;11.53;6.67;;;;;;;;;;4985573;28;20234;-66
2022/03/04 11:48:03;;;;;;;17.97;8.40;;;;;;;;;;4984630;28;20210;-66
2022/03/04 11:50:32;;;;;;;4.40;4.00;;;;;;;;;;4985349;28;20226;-65
2022/03/04 11:53:16;;;;;;;13.63;7.03;;;;;;;;;;4985741;28;20711;-65
2022/03/04 11:55:58;;;;;;;12.73;7.93;;;;;;;;;;4985598;28;20515;-66
2022/03/04 11:58:25;;;;;;;15.23;8.00;;;;;;;;;;4984598;28;20209;-66
2022/03/04 12:00:53;;;;;;;12.70;7.17;;;;;;;;;;4985578;28;20209;-66
2022/03/04 12:03:21;;;;;;;17.97;7.17;;;;;;;;;;4985721;28;20209;-66
2022/03/04 12:05:52;;;;;;;6.83;5.13;;;;;;;;;;4985681;28;20209;-65
2022/03/04 12:08:19;;;;;;;17.80;7.33;;;;;;;;;;4985321;28;20323;-64
2022/03/04 12:10:48;;;;;;;14.17;8.20;;;;;;;;;;4985293;28;20233;-65
2022/03/04 12:13:18;;;;;;;14.20;7.33;;;;;;;;;;4985828;28;20233;-64
2022/03/04 12:15:46;;;;;;;20.57;9.33;;;;;;;;;;4985452;28;20316;-65
2022/03/04 12:18:18;;;;;;;19.00;8.83;;;;;;;;;;4985200;28;20213;-65
2022/03/04 12:21:05;;;;;;;19.90;8.37;;;;;;;;;;4985022;28;20288;-65
2022/03/04 12:23:36;;;;;;;13.17;7.00;;;;;;;;;;4984925;28;20220;-65
2022/03/04 12:26:11;;;;;;;17.90;8.60;;;;;;;;;;4985165;28;20218;-65
2022/03/04 12:28:41;;;;;;;20.20;9.07;;;;;;;;;;4984621;28;20205;-65
2022/03/04 12:31:15;;;;;;;9.40;5.33;;;;;;;;;;4984689;28;20238;-64
2022/03/04 12:33:44;;;;;;;16.13;7.80;;;;;;;;;;4984965;28;20217;-64
2022/03/04 12:36:13;;;;;;;10.17;4.73;;;;;;;;;;4984671;28;20776;-64
2022/03/04 12:38:47;;;;;;;16.50;8.27;;;;;;;;;;4984522;28;20214;-65
2022/03/04 12:41:16;;;;;;;15.30;8.07;;;;;;;;;;4984725;28;20208;-64
2022/03/04 12:43:45;;;;;;;17.40;8.63;;;;;;;;;;4984682;28;20741;-64
2022/03/04 12:46:12;;;;;;;14.67;7.53;;;;;;;;;;4984595;28;20205;-65
2022/03/04 12:48:39;;;;;;;13.07;7.73;;;;;;;;;;4984243;28;20214;-65
2022/03/04 12:51:20;;;;;;;16.93;7.27;;;;;;;;;;4984940;28;20236;-65
2022/03/04 12:53:48;;;;;;;16.47;8.43;;;;;;;;;;4984488;28;20210;-65
2022/03/04 12:56:16;;;;;;;15.70;7.43;;;;;;;;;;4984509;28;20217;-65
2022/03/04 12:58:45;;;;;;;15.77;8.40;;;;;;;;;;4983861;28;20308;-65
2022/03/04 13:01:12;;;;;;;14.97;6.50;;;;;;;;;;4984828;28;20697;-64
2022/03/04 13:03:39;;;;;;;17.00;8.73;;;;;;;;;;4984589;28;20217;-65
2022/03/04 13:06:06;;;;;;;17.40;7.40;;;;;;;;;;4984405;28;20213;-65
2022/03/04 13:08:35;;;;;;;13.87;8.17;;;;;;;;;;4984244;28;20246;-65
2022/03/04 13:11:19;;;;;;;8.13;4.10;;;;;;;;;;4983814;28;20236;-65
2022/03/04 13:13:47;;;;;;;6.03;2.60;;;;;;;;;;4984135;28;20327;-64
2022/03/04 13:16:18;;;;;;;17.03;7.10;;;;;;;;;;4983150;28;20232;-64
2022/03/04 13:18:45;;;;;;;15.07;8.03;;;;;;;;;;4983942;28;20213;-65
2022/03/04 13:21:12;;;;;;;9.73;6.07;;;;;;;;;;4984009;28;20248;-65
2022/03/04 13:23:49;;;;;;;13.43;7.60;;;;;;;;;;4983678;28;20205;-65
2022/03/04 13:26:16;;;;;;;16.17;8.43;;;;;;;;;;4984231;28;20673;-64
2022/03/04 13:28:53;;;;;;;18.07;8.93;;;;;;;;;;4984243;28;20743;-64
2022/03/04 13:31:27;;;;;;;13.77;6.60;;;;;;;;;;4984490;28;20237;-65
2022/03/04 13:34:00;;;;;;;6.57;4.23;;;;;;;;;;4983894;28;20704;-65
2022/03/04 13:36:56;;;;;;;16.27;7.13;;;;;;;;;;4983555;28;20213;-64
2022/03/04 13:39:26;;;;;;;21.27;8.90;;;;;;;;;;4938373;28;20827;-65
2022/03/04 13:42:11;;;;;;;16.93;8.43;;;;;;;;;;4983652;28;20210;-65
2022/03/04 13:44:48;;;;;;;15.80;7.97;;;;;;;;;;4972552;28;20619;-64
2022/03/04 13:47:15;;;;;;;12.10;6.60;;;;;;;;;;4983937;28;20687;-63
2022/03/04 13:49:46;;;;;;;17.83;8.03;;;;;;;;;;4983831;28;20217;-64
2022/03/04 13:52:13;;;;;;;13.20;7.70;;;;;;;;;;4983273;28;20643;-63
2022/03/04 13:54:52;;;;;;;18.23;7.47;;;;;;;;;;4983072;28;20526;-64
2022/03/04 13:57:30;;;;;;;5.20;2.73;;;;;;;;;;4983743;28;20646;-63
2022/03/04 14:00:00;;;;;;;12.30;6.20;;;;;;;;;;4982458;28;20201;-63
2022/03/04 14:02:27;;;;;;;17.27;8.03;;;;;;;;;;4983664;28;20206;-64
2022/03/04 14:04:55;;;;;;;12.67;6.33;;;;;;;;;;4983640;28;20638;-64
2022/03/04 14:07:22;;;;;;;8.60;3.37;;;;;;;;;;4982383;28;20613;-63
2022/03/04 14:09:55;;;;;;;4.57;4.03;;;;;;;;;;4986075;28;20216;-63
2022/03/04 14:12:22;;;;;;;15.97;7.57;;;;;;;;;;4985366;28;20229;-64
2022/03/04 14:14:49;;;;;;;12.27;6.47;;;;;;;;;;4979729;28;20299;-63
2022/03/04 14:17:17;;;;;;;12.97;6.37;;;;;;;;;;4986767;28;20229;-64
2022/03/04 14:19:44;;;;;;;14.83;6.00;;;;;;;;;;4967888;28;20268;-64
2022/03/04 14:22:11;;;;;;;12.90;6.23;;;;;;;;;;4980239;28;20206;-64
2022/03/04 14:24:38;;;;;;;11.97;6.03;;;;;;;;;;4981337;28;20217;-65
2022/03/04 14:27:06;;;;;;;11.30;4.13;;;;;;;;;;4987338;28;20221;-65
2022/03/04 14:29:33;;;;;;;17.30;7.17;;;;;;;;;;4984645;28;20675;-65
2022/03/04 14:32:00;;;;;;;6.90;3.83;;;;;;;;;;4986647;28;20233;-65
2022/03/04 14:34:30;;;;;;;5.77;3.90;;;;;;;;;;4986241;28;20218;-64
2022/03/04 14:36:57;;;;;;;18.00;8.13;;;;;;;;;;4987551;28;20785;-65
2022/03/04 14:39:24;;;;;;;11.97;6.73;;;;;;;;;;4987846;28;20292;-68
2022/03/04 14:41:51;;;;;;;10.63;6.53;;;;;;;;;;4987942;28;20214;-61
2022/03/04 14:44:20;;;;;;;13.20;6.30;;;;;;;;;;4987613;28;20209;-62